sensor_id;sensor_type;location;lat;lon;timestamp;P1;durP1;ratioP1;P2;durP2;ratioP2
12410;SDS011;6269;51.044;13.692;2022-07-04T00:02:06;5.45;;;3.92;;
12410;SDS011;6269;51.044;13.692;2022-07-04T00:04:41;6.05;;;4.30;;
12410;SDS011;6269;51.044;13.692;2022-07-04T00:07:17;4.40;;;3.90;;
12410;SDS011;6269;51.044;13.692;2022-07-04T00:09:55;4.65;;;4.25;;
12410;SDS011;6269;51.044;13.692;2022-07-04T00:12:30;4.60;;;4.20;;
12410;SDS011;6269;51.044;13.692;2022-07-04T00:15:08;5.00;;;4.38;;
12410;SDS011;6269;51.044;13.692;2022-07-04T00:20:27;4.28;;;3.97;;
12410;SDS011;6269;51.044;13.692;2022-07-04T00:23:03;4.88;;;4.40;;
12410;SDS011;6269;51.044;13.692;2022-07-04T00:25:41;4.40;;;4.00;;
12410;SDS011;6269;51.044;13.692;2022-07-04T00:28:16;4.30;;;3.90;;
12410;SDS011;6269;51.044;13.692;2022-07-04T00:30:51;4.25;;;3.70;;
12410;SDS011;6269;51.044;13.692;2022-07-04T00:33:26;4.95;;;4.47;;
12410;SDS011;6269;51.044;13.692;2022-07-04T00:36:02;4.90;;;4.50;;
12410;SDS011;6269;51.044;13.692;2022-07-04T00:38:43;4.82;;;4.43;;
12410;SDS011;6269;51.044;13.692;2022-07-04T00:41:22;4.55;;;4.15;;
12410;SDS011;6269;51.044;13.692;2022-07-04T00:44:01;4.25;;;3.85;;
12410;SDS011;6269;51.044;13.692;2022-07-04T00:46:45;5.38;;;4.20;;
12410;SDS011;6269;51.044;13.692;2022-07-04T00:49:21;3.78;;;3.47;;
12410;SDS011;6269;51.044;13.692;2022-07-04T00:51:56;4.32;;;3.92;;
12410;SDS011;6269;51.044;13.692;2022-07-04T00:54:32;5.53;;;4.13;;
12410;SDS011;6269;51.044;13.692;2022-07-04T00:57:10;4.32;;;3.33;;
12410;SDS011;6269;51.044;13.692;2022-07-04T00:59:45;4.78;;;3.50;;
12410;SDS011;6269;51.044;13.692;2022-07-04T01:02:20;4.03;;;3.40;;
12410;SDS011;6269;51.044;13.692;2022-07-04T01:04:55;3.17;;;2.85;;
12410;SDS011;6269;51.044;13.692;2022-07-04T01:07:31;3.10;;;2.80;;
12410;SDS011;6269;51.044;13.692;2022-07-04T01:10:06;2.83;;;2.60;;
12410;SDS011;6269;51.044;13.692;2022-07-04T01:12:44;3.05;;;2.50;;
12410;SDS011;6269;51.044;13.692;2022-07-04T01:15:20;4.05;;;2.65;;
12410;SDS011;6269;51.044;13.692;2022-07-04T01:17:56;3.08;;;2.65;;
12410;SDS011;6269;51.044;13.692;2022-07-04T01:20:37;6.95;;;3.00;;
12410;SDS011;6269;51.044;13.692;2022-07-04T01:23:13;3.35;;;2.70;;
12410;SDS011;6269;51.044;13.692;2022-07-04T01:25:48;2.95;;;2.75;;
12410;SDS011;6269;51.044;13.692;2022-07-04T01:28:24;3.63;;;2.15;;
12410;SDS011;6269;51.044;13.692;2022-07-04T01:30:59;2.95;;;2.30;;
12410;SDS011;6269;51.044;13.692;2022-07-04T01:33:34;2.63;;;2.40;;
12410;SDS011;6269;51.044;13.692;2022-07-04T01:36:12;2.30;;;2.00;;
12410;SDS011;6269;51.044;13.692;2022-07-04T01:38:48;5.07;;;2.78;;
12410;SDS011;6269;51.044;13.692;2022-07-04T01:41:23;2.47;;;2.28;;
12410;SDS011;6269;51.044;13.692;2022-07-04T01:43:58;2.63;;;2.42;;
12410;SDS011;6269;51.044;13.692;2022-07-04T01:46:33;2.65;;;2.38;;
12410;SDS011;6269;51.044;13.692;2022-07-04T01:49:08;2.70;;;2.25;;
12410;SDS011;6269;51.044;13.692;2022-07-04T01:51:47;5.30;;;2.50;;
12410;SDS011;6269;51.044;13.692;2022-07-04T01:54:23;3.55;;;2.70;;
12410;SDS011;6269;51.044;13.692;2022-07-04T01:56:58;2.45;;;2.25;;
12410;SDS011;6269;51.044;13.692;2022-07-04T01:59:33;4.30;;;2.60;;
12410;SDS011;6269;51.044;13.692;2022-07-04T02:02:21;3.38;;;2.47;;
12410;SDS011;6269;51.044;13.692;2022-07-04T02:04:56;2.38;;;2.10;;
12410;SDS011;6269;51.044;13.692;2022-07-04T02:07:34;2.65;;;2.30;;
12410;SDS011;6269;51.044;13.692;2022-07-04T02:10:09;3.38;;;2.40;;
12410;SDS011;6269;51.044;13.692;2022-07-04T02:12:45;2.92;;;2.20;;
12410;SDS011;6269;51.044;13.692;2022-07-04T02:15:34;2.53;;;2.22;;
12410;SDS011;6269;51.044;13.692;2022-07-04T02:18:10;4.15;;;2.70;;
12410;SDS011;6269;51.044;13.692;2022-07-04T02:20:46;2.97;;;2.15;;
12410;SDS011;6269;51.044;13.692;2022-07-04T02:23:23;3.67;;;2.22;;
12410;SDS011;6269;51.044;13.692;2022-07-04T02:25:59;5.63;;;2.38;;
12410;SDS011;6269;51.044;13.692;2022-07-04T02:28:33;3.47;;;2.25;;
12410;SDS011;6269;51.044;13.692;2022-07-04T02:31:08;3.63;;;2.10;;
12410;SDS011;6269;51.044;13.692;2022-07-04T02:33:43;3.95;;;2.15;;
12410;SDS011;6269;51.044;13.692;2022-07-04T02:36:18;2.85;;;2.50;;
12410;SDS011;6269;51.044;13.692;2022-07-04T02:38:56;2.42;;;2.22;;
12410;SDS011;6269;51.044;13.692;2022-07-04T02:41:31;3.58;;;2.35;;
12410;SDS011;6269;51.044;13.692;2022-07-04T02:44:07;3.65;;;2.22;;
12410;SDS011;6269;51.044;13.692;2022-07-04T02:46:42;4.63;;;2.30;;
12410;SDS011;6269;51.044;13.692;2022-07-04T02:49:17;3.33;;;1.95;;
12410;SDS011;6269;51.044;13.692;2022-07-04T02:51:52;3.63;;;2.50;;
12410;SDS011;6269;51.044;13.692;2022-07-04T02:54:30;3.05;;;2.70;;
12410;SDS011;6269;51.044;13.692;2022-07-04T02:57:05;3.10;;;2.58;;
12410;SDS011;6269;51.044;13.692;2022-07-04T02:59:41;4.70;;;2.40;;
12410;SDS011;6269;51.044;13.692;2022-07-04T03:02:16;2.65;;;2.40;;
12410;SDS011;6269;51.044;13.692;2022-07-04T03:04:51;7.93;;;2.50;;
12410;SDS011;6269;51.044;13.692;2022-07-04T03:07:26;2.13;;;2.03;;
12410;SDS011;6269;51.044;13.692;2022-07-04T03:10:04;2.90;;;2.70;;
12410;SDS011;6269;51.044;13.692;2022-07-04T03:12:40;2.72;;;2.10;;
12410;SDS011;6269;51.044;13.692;2022-07-04T03:15:15;2.97;;;2.40;;
12410;SDS011;6269;51.044;13.692;2022-07-04T03:17:50;3.03;;;2.60;;
12410;SDS011;6269;51.044;13.692;2022-07-04T03:20:25;4.15;;;2.25;;
12410;SDS011;6269;51.044;13.692;2022-07-04T03:23:00;3.67;;;2.60;;
12410;SDS011;6269;51.044;13.692;2022-07-04T03:25:37;2.45;;;2.22;;
12410;SDS011;6269;51.044;13.692;2022-07-04T03:28:13;2.75;;;2.55;;
12410;SDS011;6269;51.044;13.692;2022-07-04T03:31:00;2.95;;;2.28;;
12410;SDS011;6269;51.044;13.692;2022-07-04T03:33:35;4.82;;;2.58;;
12410;SDS011;6269;51.044;13.692;2022-07-04T03:36:10;2.50;;;2.30;;
12410;SDS011;6269;51.044;13.692;2022-07-04T03:38:45;5.03;;;2.60;;
12410;SDS011;6269;51.044;13.692;2022-07-04T03:41:23;6.88;;;2.78;;
12410;SDS011;6269;51.044;13.692;2022-07-04T03:43:58;3.17;;;2.55;;
12410;SDS011;6269;51.044;13.692;2022-07-04T03:46:33;4.72;;;2.47;;
12410;SDS011;6269;51.044;13.692;2022-07-04T03:49:08;2.38;;;2.17;;
12410;SDS011;6269;51.044;13.692;2022-07-04T03:51:43;4.22;;;2.45;;
12410;SDS011;6269;51.044;13.692;2022-07-04T03:54:19;7.70;;;2.60;;
12410;SDS011;6269;51.044;13.692;2022-07-04T03:56:56;2.40;;;2.20;;
12410;SDS011;6269;51.044;13.692;2022-07-04T03:59:31;2.88;;;2.40;;
12410;SDS011;6269;51.044;13.692;2022-07-04T04:02:06;4.07;;;2.60;;
12410;SDS011;6269;51.044;13.692;2022-07-04T04:04:41;3.63;;;2.30;;
12410;SDS011;6269;51.044;13.692;2022-07-04T04:07:44;3.15;;;2.45;;
12410;SDS011;6269;51.044;13.692;2022-07-04T04:10:19;6.43;;;3.17;;
12410;SDS011;6269;51.044;13.692;2022-07-04T04:12:57;3.10;;;2.80;;
12410;SDS011;6269;51.044;13.692;2022-07-04T04:15:32;4.25;;;2.67;;
12410;SDS011;6269;51.044;13.692;2022-07-04T04:18:07;3.72;;;2.40;;
12410;SDS011;6269;51.044;13.692;2022-07-04T04:20:42;7.88;;;3.42;;
12410;SDS011;6269;51.044;13.692;2022-07-04T04:23:17;6.63;;;3.08;;
12410;SDS011;6269;51.044;13.692;2022-07-04T04:25:52;5.55;;;2.60;;
12410;SDS011;6269;51.044;13.692;2022-07-04T04:28:29;4.05;;;2.85;;
12410;SDS011;6269;51.044;13.692;2022-07-04T04:31:05;9.65;;;3.33;;
12410;SDS011;6269;51.044;13.692;2022-07-04T04:33:40;7.25;;;3.33;;
12410;SDS011;6269;51.044;13.692;2022-07-04T04:36:15;4.53;;;2.60;;
12410;SDS011;6269;51.044;13.692;2022-07-04T04:38:50;4.25;;;2.63;;
12410;SDS011;6269;51.044;13.692;2022-07-04T04:41:25;4.60;;;2.78;;
12410;SDS011;6269;51.044;13.692;2022-07-04T04:44:03;3.42;;;2.63;;
12410;SDS011;6269;51.044;13.692;2022-07-04T04:46:38;6.90;;;2.90;;
12410;SDS011;6269;51.044;13.692;2022-07-04T04:49:13;3.70;;;3.03;;
12410;SDS011;6269;51.044;13.692;2022-07-04T04:51:48;4.30;;;3.55;;
12410;SDS011;6269;51.044;13.692;2022-07-04T04:54:23;5.03;;;3.33;;
12410;SDS011;6269;51.044;13.692;2022-07-04T04:56:59;3.50;;;3.20;;
12410;SDS011;6269;51.044;13.692;2022-07-04T04:59:36;6.10;;;3.85;;
12410;SDS011;6269;51.044;13.692;2022-07-04T05:02:11;4.80;;;3.40;;
12410;SDS011;6269;51.044;13.692;2022-07-04T05:04:47;4.28;;;3.70;;
12410;SDS011;6269;51.044;13.692;2022-07-04T05:07:22;4.55;;;4.10;;
12410;SDS011;6269;51.044;13.692;2022-07-04T05:09:57;6.13;;;4.25;;
12410;SDS011;6269;51.044;13.692;2022-07-04T05:12:32;5.80;;;3.90;;
12410;SDS011;6269;51.044;13.692;2022-07-04T05:15:13;7.53;;;4.15;;
12410;SDS011;6269;51.044;13.692;2022-07-04T05:17:48;5.65;;;3.90;;
12410;SDS011;6269;51.044;13.692;2022-07-04T05:20:23;5.32;;;4.00;;
12410;SDS011;6269;51.044;13.692;2022-07-04T05:22:58;6.15;;;4.28;;
12410;SDS011;6269;51.044;13.692;2022-07-04T05:25:33;4.05;;;3.63;;
12410;SDS011;6269;51.044;13.692;2022-07-04T05:28:08;4.68;;;3.58;;
12410;SDS011;6269;51.044;13.692;2022-07-04T05:30:46;7.38;;;3.70;;
12410;SDS011;6269;51.044;13.692;2022-07-04T05:33:21;8.15;;;3.63;;
12410;SDS011;6269;51.044;13.692;2022-07-04T05:35:56;5.25;;;3.65;;
12410;SDS011;6269;51.044;13.692;2022-07-04T05:38:31;4.07;;;3.13;;
12410;SDS011;6269;51.044;13.692;2022-07-04T05:41:06;3.78;;;3.33;;
12410;SDS011;6269;51.044;13.692;2022-07-04T05:43:41;3.97;;;3.33;;
12410;SDS011;6269;51.044;13.692;2022-07-04T05:46:19;4.07;;;3.67;;
12410;SDS011;6269;51.044;13.692;2022-07-04T05:48:54;6.18;;;3.53;;
12410;SDS011;6269;51.044;13.692;2022-07-04T05:51:29;4.88;;;3.80;;
12410;SDS011;6269;51.044;13.692;2022-07-04T05:54:05;4.40;;;3.35;;
12410;SDS011;6269;51.044;13.692;2022-07-04T05:56:40;3.80;;;3.40;;
12410;SDS011;6269;51.044;13.692;2022-07-04T05:59:16;7.25;;;3.30;;
12410;SDS011;6269;51.044;13.692;2022-07-04T06:01:53;5.28;;;3.35;;
12410;SDS011;6269;51.044;13.692;2022-07-04T06:04:29;4.25;;;3.33;;
12410;SDS011;6269;51.044;13.692;2022-07-04T06:07:04;5.55;;;3.33;;
12410;SDS011;6269;51.044;13.692;2022-07-04T06:09:39;5.13;;;3.38;;
12410;SDS011;6269;51.044;13.692;2022-07-04T06:12:15;4.82;;;2.95;;
12410;SDS011;6269;51.044;13.692;2022-07-04T06:14:50;5.00;;;3.60;;
12410;SDS011;6269;51.044;13.692;2022-07-04T06:17:28;5.03;;;3.20;;
12410;SDS011;6269;51.044;13.692;2022-07-04T06:20:04;5.55;;;3.20;;
12410;SDS011;6269;51.044;13.692;2022-07-04T06:22:40;3.53;;;3.22;;
12410;SDS011;6269;51.044;13.692;2022-07-04T06:25:16;6.93;;;3.28;;
12410;SDS011;6269;51.044;13.692;2022-07-04T06:27:52;4.78;;;3.13;;
12410;SDS011;6269;51.044;13.692;2022-07-04T06:30:27;7.75;;;3.17;;
12410;SDS011;6269;51.044;13.692;2022-07-04T06:33:05;3.53;;;3.00;;
12410;SDS011;6269;51.044;13.692;2022-07-04T06:35:40;3.63;;;2.92;;
12410;SDS011;6269;51.044;13.692;2022-07-04T06:38:23;3.47;;;2.83;;
12410;SDS011;6269;51.044;13.692;2022-07-04T06:41:00;4.50;;;2.80;;
12410;SDS011;6269;51.044;13.692;2022-07-04T06:43:35;7.25;;;3.30;;
12410;SDS011;6269;51.044;13.692;2022-07-04T06:46:10;3.65;;;2.92;;
12410;SDS011;6269;51.044;13.692;2022-07-04T06:48:48;2.83;;;2.63;;
12410;SDS011;6269;51.044;13.692;2022-07-04T06:51:23;6.95;;;3.10;;
12410;SDS011;6269;51.044;13.692;2022-07-04T06:53:58;6.13;;;2.75;;
12410;SDS011;6269;51.044;13.692;2022-07-04T06:56:33;3.92;;;2.72;;
12410;SDS011;6269;51.044;13.692;2022-07-04T06:59:08;3.85;;;3.03;;
12410;SDS011;6269;51.044;13.692;2022-07-04T07:01:43;4.85;;;2.78;;
12410;SDS011;6269;51.044;13.692;2022-07-04T07:04:21;2.75;;;2.50;;
12410;SDS011;6269;51.044;13.692;2022-07-04T07:06:56;3.70;;;2.70;;
12410;SDS011;6269;51.044;13.692;2022-07-04T07:09:31;3.25;;;2.70;;
12410;SDS011;6269;51.044;13.692;2022-07-04T07:12:06;3.67;;;2.70;;
12410;SDS011;6269;51.044;13.692;2022-07-04T07:14:42;3.42;;;2.40;;
12410;SDS011;6269;51.044;13.692;2022-07-04T07:17:17;4.47;;;2.70;;
12410;SDS011;6269;51.044;13.692;2022-07-04T07:19:54;4.10;;;2.80;;
12410;SDS011;6269;51.044;13.692;2022-07-04T07:22:30;2.60;;;2.40;;
12410;SDS011;6269;51.044;13.692;2022-07-04T07:25:08;3.47;;;2.63;;
12410;SDS011;6269;51.044;13.692;2022-07-04T07:27:43;2.40;;;2.20;;
12410;SDS011;6269;51.044;13.692;2022-07-04T07:30:19;7.35;;;2.47;;
12410;SDS011;6269;51.044;13.692;2022-07-04T07:32:54;2.50;;;2.30;;
12410;SDS011;6269;51.044;13.692;2022-07-04T07:35:32;2.85;;;2.20;;
12410;SDS011;6269;51.044;13.692;2022-07-04T07:38:07;3.35;;;2.30;;
12410;SDS011;6269;51.044;13.692;2022-07-04T07:40:42;3.10;;;2.15;;
12410;SDS011;6269;51.044;13.692;2022-07-04T07:43:17;3.47;;;2.38;;
12410;SDS011;6269;51.044;13.692;2022-07-04T07:45:52;3.70;;;2.20;;
12410;SDS011;6269;51.044;13.692;2022-07-04T07:48:27;5.28;;;2.17;;
12410;SDS011;6269;51.044;13.692;2022-07-04T07:51:04;3.97;;;2.10;;
12410;SDS011;6269;51.044;13.692;2022-07-04T07:53:40;2.85;;;2.15;;
12410;SDS011;6269;51.044;13.692;2022-07-04T07:56:34;2.67;;;2.10;;
12410;SDS011;6269;51.044;13.692;2022-07-04T07:59:12;4.32;;;2.05;;
12410;SDS011;6269;51.044;13.692;2022-07-04T08:01:47;2.88;;;2.42;;
12410;SDS011;6269;51.044;13.692;2022-07-04T08:04:22;2.25;;;1.98;;
12410;SDS011;6269;51.044;13.692;2022-07-04T08:07:10;2.03;;;1.73;;
12410;SDS011;6269;51.044;13.692;2022-07-04T08:09:54;3.05;;;2.13;;
12410;SDS011;6269;51.044;13.692;2022-07-04T08:12:29;2.72;;;2.25;;
12410;SDS011;6269;51.044;13.692;2022-07-04T08:15:05;2.80;;;2.28;;
12410;SDS011;6269;51.044;13.692;2022-07-04T08:17:41;2.40;;;2.20;;
12410;SDS011;6269;51.044;13.692;2022-07-04T08:20:18;2.85;;;2.00;;
12410;SDS011;6269;51.044;13.692;2022-07-04T08:22:55;2.97;;;2.15;;
12410;SDS011;6269;51.044;13.692;2022-07-04T08:25:30;3.28;;;1.98;;
12410;SDS011;6269;51.044;13.692;2022-07-04T08:28:05;3.83;;;2.17;;
12410;SDS011;6269;51.044;13.692;2022-07-04T08:30:41;2.65;;;2.00;;
12410;SDS011;6269;51.044;13.692;2022-07-04T08:33:16;3.97;;;2.13;;
12410;SDS011;6269;51.044;13.692;2022-07-04T08:35:51;2.97;;;1.70;;
12410;SDS011;6269;51.044;13.692;2022-07-04T08:38:31;4.65;;;1.92;;
12410;SDS011;6269;51.044;13.692;2022-07-04T08:41:06;5.20;;;1.98;;
12410;SDS011;6269;51.044;13.692;2022-07-04T08:43:41;3.38;;;2.13;;
12410;SDS011;6269;51.044;13.692;2022-07-04T08:46:16;2.25;;;1.80;;
12410;SDS011;6269;51.044;13.692;2022-07-04T08:48:54;3.67;;;1.80;;
12410;SDS011;6269;51.044;13.692;2022-07-04T08:51:36;3.00;;;1.70;;
12410;SDS011;6269;51.044;13.692;2022-07-04T08:54:21;3.70;;;1.85;;
12410;SDS011;6269;51.044;13.692;2022-07-04T08:57:09;1.85;;;1.52;;
12410;SDS011;6269;51.044;13.692;2022-07-04T08:59:57;6.50;;;1.98;;
12410;SDS011;6269;51.044;13.692;2022-07-04T09:02:33;1.90;;;1.70;;
12410;SDS011;6269;51.044;13.692;2022-07-04T09:05:11;1.50;;;1.40;;
12410;SDS011;6269;51.044;13.692;2022-07-04T09:07:47;1.80;;;1.38;;
12410;SDS011;6269;51.044;13.692;2022-07-04T09:10:25;2.65;;;1.60;;
12410;SDS011;6269;51.044;13.692;2022-07-04T09:13:01;2.67;;;1.60;;
12410;SDS011;6269;51.044;13.692;2022-07-04T09:15:44;2.50;;;1.40;;
12410;SDS011;6269;51.044;13.692;2022-07-04T09:18:24;2.33;;;1.60;;
12410;SDS011;6269;51.044;13.692;2022-07-04T09:21:05;1.75;;;1.63;;
12410;SDS011;6269;51.044;13.692;2022-07-04T09:23:42;2.75;;;1.90;;
12410;SDS011;6269;51.044;13.692;2022-07-04T09:26:20;2.22;;;1.73;;
12410;SDS011;6269;51.044;13.692;2022-07-04T09:28:57;3.22;;;1.73;;
12410;SDS011;6269;51.044;13.692;2022-07-04T09:31:32;2.88;;;1.55;;
12410;SDS011;6269;51.044;13.692;2022-07-04T09:34:07;2.28;;;1.80;;
12410;SDS011;6269;51.044;13.692;2022-07-04T09:36:43;1.73;;;1.50;;
12410;SDS011;6269;51.044;13.692;2022-07-04T09:39:19;1.45;;;1.35;;
12410;SDS011;6269;51.044;13.692;2022-07-04T09:41:58;2.88;;;1.40;;
12410;SDS011;6269;51.044;13.692;2022-07-04T09:44:42;1.58;;;1.48;;
12410;SDS011;6269;51.044;13.692;2022-07-04T09:47:19;1.95;;;1.38;;
12410;SDS011;6269;51.044;13.692;2022-07-04T09:50:00;3.45;;;1.42;;
12410;SDS011;6269;51.044;13.692;2022-07-04T09:52:49;2.55;;;1.50;;
12410;SDS011;6269;51.044;13.692;2022-07-04T09:55:27;4.75;;;1.75;;
12410;SDS011;6269;51.044;13.692;2022-07-04T09:58:07;2.72;;;1.50;;
12410;SDS011;6269;51.044;13.692;2022-07-04T10:00:43;2.03;;;1.40;;
12410;SDS011;6269;51.044;13.692;2022-07-04T10:03:21;3.03;;;1.40;;
12410;SDS011;6269;51.044;13.692;2022-07-04T10:06:07;3.08;;;1.58;;
12410;SDS011;6269;51.044;13.692;2022-07-04T10:08:43;3.30;;;1.58;;
12410;SDS011;6269;51.044;13.692;2022-07-04T10:11:18;2.33;;;1.60;;
12410;SDS011;6269;51.044;13.692;2022-07-04T10:14:11;2.65;;;1.35;;
12410;SDS011;6269;51.044;13.692;2022-07-04T10:16:47;4.88;;;1.50;;
12410;SDS011;6269;51.044;13.692;2022-07-04T10:19:22;3.75;;;1.50;;
12410;SDS011;6269;51.044;13.692;2022-07-04T10:21:58;4.63;;;1.67;;
12410;SDS011;6269;51.044;13.692;2022-07-04T10:24:33;2.72;;;1.30;;
12410;SDS011;6269;51.044;13.692;2022-07-04T10:27:08;2.13;;;1.33;;
12410;SDS011;6269;51.044;13.692;2022-07-04T10:29:46;1.23;;;1.15;;
12410;SDS011;6269;51.044;13.692;2022-07-04T10:32:21;3.05;;;1.65;;
12410;SDS011;6269;51.044;13.692;2022-07-04T10:34:57;1.90;;;1.30;;
12410;SDS011;6269;51.044;13.692;2022-07-04T10:40:41;2.22;;;1.50;;
12410;SDS011;6269;51.044;13.692;2022-07-04T10:46:47;1.77;;;1.50;;
12410;SDS011;6269;51.044;13.692;2022-07-04T10:49:24;1.70;;;1.30;;
12410;SDS011;6269;51.044;13.692;2022-07-04T10:52:10;3.72;;;1.15;;
12410;SDS011;6269;51.044;13.692;2022-07-04T10:54:46;3.45;;;2.10;;
12410;SDS011;6269;51.044;13.692;2022-07-04T10:57:22;5.25;;;1.85;;
12410;SDS011;6269;51.044;13.692;2022-07-04T11:00:03;3.55;;;1.30;;
12410;SDS011;6269;51.044;13.692;2022-07-04T11:02:44;4.38;;;1.60;;
12410;SDS011;6269;51.044;13.692;2022-07-04T11:05:27;3.05;;;1.80;;
12410;SDS011;6269;51.044;13.692;2022-07-04T11:08:06;2.08;;;1.38;;
12410;SDS011;6269;51.044;13.692;2022-07-04T11:10:41;4.78;;;1.50;;
12410;SDS011;6269;51.044;13.692;2022-07-04T11:13:16;4.45;;;1.63;;
12410;SDS011;6269;51.044;13.692;2022-07-04T11:16:04;3.30;;;1.48;;
12410;SDS011;6269;51.044;13.692;2022-07-04T11:18:44;1.92;;;1.48;;
12410;SDS011;6269;51.044;13.692;2022-07-04T11:21:20;1.40;;;1.30;;
12410;SDS011;6269;51.044;13.692;2022-07-04T11:23:57;2.63;;;1.50;;
12410;SDS011;6269;51.044;13.692;2022-07-04T11:26:32;4.88;;;1.70;;
12410;SDS011;6269;51.044;13.692;2022-07-04T11:29:07;1.67;;;1.40;;
12410;SDS011;6269;51.044;13.692;2022-07-04T11:31:44;2.83;;;1.35;;
12410;SDS011;6269;51.044;13.692;2022-07-04T11:34:24;1.70;;;1.30;;
12410;SDS011;6269;51.044;13.692;2022-07-04T11:36:59;1.67;;;1.30;;
12410;SDS011;6269;51.044;13.692;2022-07-04T11:39:37;2.67;;;1.77;;
12410;SDS011;6269;51.044;13.692;2022-07-04T11:42:12;2.13;;;1.33;;
12410;SDS011;6269;51.044;13.692;2022-07-04T11:45:00;3.03;;;1.60;;
12410;SDS011;6269;51.044;13.692;2022-07-04T11:47:38;1.77;;;1.25;;
12410;SDS011;6269;51.044;13.692;2022-07-04T11:50:17;2.00;;;1.50;;
12410;SDS011;6269;51.044;13.692;2022-07-04T11:52:52;2.67;;;1.70;;
12410;SDS011;6269;51.044;13.692;2022-07-04T11:55:58;4.45;;;1.20;;
12410;SDS011;6269;51.044;13.692;2022-07-04T11:58:38;3.75;;;1.50;;
12410;SDS011;6269;51.044;13.692;2022-07-04T12:01:13;1.55;;;1.40;;
12410;SDS011;6269;51.044;13.692;2022-07-04T12:04:10;1.92;;;1.70;;
12410;SDS011;6269;51.044;13.692;2022-07-04T12:06:52;3.08;;;1.20;;
12410;SDS011;6269;51.044;13.692;2022-07-04T12:09:27;3.42;;;1.30;;
12410;SDS011;6269;51.044;13.692;2022-07-04T12:12:03;3.17;;;1.20;;
12410;SDS011;6269;51.044;13.692;2022-07-04T12:14:38;1.48;;;1.25;;
12410;SDS011;6269;51.044;13.692;2022-07-04T12:17:14;1.52;;;1.33;;
12410;SDS011;6269;51.044;13.692;2022-07-04T12:19:51;1.38;;;1.27;;
12410;SDS011;6269;51.044;13.692;2022-07-04T12:22:34;2.03;;;1.20;;
12410;SDS011;6269;51.044;13.692;2022-07-04T12:25:20;2.05;;;1.55;;
12410;SDS011;6269;51.044;13.692;2022-07-04T12:27:58;1.70;;;1.27;;
12410;SDS011;6269;51.044;13.692;2022-07-04T12:30:35;3.05;;;1.35;;
12410;SDS011;6269;51.044;13.692;2022-07-04T12:33:11;2.10;;;1.50;;
12410;SDS011;6269;51.044;13.692;2022-07-04T12:35:47;5.30;;;1.45;;
12410;SDS011;6269;51.044;13.692;2022-07-04T12:38:32;3.25;;;1.60;;
12410;SDS011;6269;51.044;13.692;2022-07-04T12:41:09;2.08;;;1.60;;
12410;SDS011;6269;51.044;13.692;2022-07-04T12:43:47;2.47;;;1.67;;
12410;SDS011;6269;51.044;13.692;2022-07-04T12:46:27;1.88;;;1.50;;
12410;SDS011;6269;51.044;13.692;2022-07-04T12:49:17;3.55;;;1.67;;
12410;SDS011;6269;51.044;13.692;2022-07-04T12:51:53;2.15;;;1.80;;
12410;SDS011;6269;51.044;13.692;2022-07-04T12:54:41;2.30;;;1.50;;
12410;SDS011;6269;51.044;13.692;2022-07-04T12:57:20;1.73;;;1.35;;
12410;SDS011;6269;51.044;13.692;2022-07-04T12:59:55;1.50;;;1.27;;
12410;SDS011;6269;51.044;13.692;2022-07-04T13:02:51;4.03;;;1.40;;
12410;SDS011;6269;51.044;13.692;2022-07-04T13:05:29;2.63;;;1.63;;
12410;SDS011;6269;51.044;13.692;2022-07-04T13:08:04;2.85;;;1.48;;
12410;SDS011;6269;51.044;13.692;2022-07-04T13:10:42;2.60;;;1.30;;
12410;SDS011;6269;51.044;13.692;2022-07-04T13:13:17;2.00;;;1.40;;
12410;SDS011;6269;51.044;13.692;2022-07-04T13:15:52;2.33;;;1.35;;
12410;SDS011;6269;51.044;13.692;2022-07-04T13:18:27;3.95;;;1.38;;
12410;SDS011;6269;51.044;13.692;2022-07-04T13:21:03;3.58;;;1.25;;
12410;SDS011;6269;51.044;13.692;2022-07-04T13:23:38;2.75;;;1.20;;
12410;SDS011;6269;51.044;13.692;2022-07-04T13:26:16;3.35;;;1.58;;
12410;SDS011;6269;51.044;13.692;2022-07-04T13:28:51;2.92;;;1.60;;
12410;SDS011;6269;51.044;13.692;2022-07-04T13:31:26;2.00;;;1.40;;
12410;SDS011;6269;51.044;13.692;2022-07-04T13:34:02;1.60;;;1.50;;
12410;SDS011;6269;51.044;13.692;2022-07-04T13:36:37;3.33;;;1.40;;
12410;SDS011;6269;51.044;13.692;2022-07-04T13:39:12;2.20;;;1.50;;
12410;SDS011;6269;51.044;13.692;2022-07-04T13:42:11;4.40;;;1.70;;
12410;SDS011;6269;51.044;13.692;2022-07-04T13:45:07;2.53;;;1.40;;
12410;SDS011;6269;51.044;13.692;2022-07-04T13:47:44;4.55;;;1.30;;
12410;SDS011;6269;51.044;13.692;2022-07-04T13:50:20;3.15;;;1.30;;
12410;SDS011;6269;51.044;13.692;2022-07-04T13:52:55;3.08;;;1.23;;
12410;SDS011;6269;51.044;13.692;2022-07-04T13:55:30;2.05;;;1.38;;
12410;SDS011;6269;51.044;13.692;2022-07-04T13:58:12;4.40;;;1.63;;
12410;SDS011;6269;51.044;13.692;2022-07-04T14:00:47;3.60;;;1.42;;
12410;SDS011;6269;51.044;13.692;2022-07-04T14:03:23;3.83;;;1.60;;
12410;SDS011;6269;51.044;13.692;2022-07-04T14:05:58;3.35;;;1.60;;
12410;SDS011;6269;51.044;13.692;2022-07-04T14:08:33;2.85;;;1.40;;
12410;SDS011;6269;51.044;13.692;2022-07-04T14:11:08;1.50;;;1.40;;
12410;SDS011;6269;51.044;13.692;2022-07-04T14:13:45;3.60;;;1.48;;
12410;SDS011;6269;51.044;13.692;2022-07-04T14:16:22;2.22;;;1.40;;
12410;SDS011;6269;51.044;13.692;2022-07-04T14:18:58;1.90;;;1.40;;
12410;SDS011;6269;51.044;13.692;2022-07-04T14:21:33;2.97;;;1.27;;
12410;SDS011;6269;51.044;13.692;2022-07-04T14:24:08;3.38;;;1.38;;
12410;SDS011;6269;51.044;13.692;2022-07-04T14:26:43;2.97;;;1.42;;
12410;SDS011;6269;51.044;13.692;2022-07-04T14:29:21;4.03;;;1.10;;
12410;SDS011;6269;51.044;13.692;2022-07-04T14:31:56;2.85;;;1.50;;
12410;SDS011;6269;51.044;13.692;2022-07-04T14:34:31;4.03;;;1.80;;
12410;SDS011;6269;51.044;13.692;2022-07-04T14:37:06;3.53;;;1.13;;
12410;SDS011;6269;51.044;13.692;2022-07-04T14:39:41;4.60;;;1.15;;
12410;SDS011;6269;51.044;13.692;2022-07-04T14:42:17;1.25;;;1.10;;
12410;SDS011;6269;51.044;13.692;2022-07-04T14:44:55;4.05;;;1.13;;
12410;SDS011;6269;51.044;13.692;2022-07-04T14:47:30;1.20;;;1.10;;
12410;SDS011;6269;51.044;13.692;2022-07-04T14:50:06;2.50;;;1.60;;
12410;SDS011;6269;51.044;13.692;2022-07-04T14:52:42;9.38;;;1.88;;
12410;SDS011;6269;51.044;13.692;2022-07-04T14:55:17;1.60;;;1.20;;
12410;SDS011;6269;51.044;13.692;2022-07-04T14:57:52;1.92;;;1.27;;
12410;SDS011;6269;51.044;13.692;2022-07-04T15:00:30;6.57;;;1.60;;
12410;SDS011;6269;51.044;13.692;2022-07-04T15:03:05;1.85;;;1.15;;
12410;SDS011;6269;51.044;13.692;2022-07-04T15:05:40;2.10;;;1.00;;
12410;SDS011;6269;51.044;13.692;2022-07-04T15:08:15;2.17;;;1.13;;
12410;SDS011;6269;51.044;13.692;2022-07-04T15:10:50;1.38;;;1.10;;
12410;SDS011;6269;51.044;13.692;2022-07-04T15:13:31;9.48;;;1.63;;
12410;SDS011;6269;51.044;13.692;2022-07-04T15:16:08;1.10;;;1.00;;
12410;SDS011;6269;51.044;13.692;2022-07-04T15:18:54;2.80;;;1.20;;
12410;SDS011;6269;51.044;13.692;2022-07-04T15:21:29;1.85;;;1.40;;
12410;SDS011;6269;51.044;13.692;2022-07-04T15:24:17;4.10;;;1.20;;
12410;SDS011;6269;51.044;13.692;2022-07-04T15:26:52;4.07;;;1.20;;
12410;SDS011;6269;51.044;13.692;2022-07-04T15:29:29;1.70;;;1.10;;
12410;SDS011;6269;51.044;13.692;2022-07-04T15:32:07;2.88;;;1.00;;
12410;SDS011;6269;51.044;13.692;2022-07-04T15:34:42;2.95;;;1.30;;
12410;SDS011;6269;51.044;13.692;2022-07-04T15:37:37;1.23;;;1.10;;
12410;SDS011;6269;51.044;13.692;2022-07-04T15:40:12;1.70;;;1.20;;
12410;SDS011;6269;51.044;13.692;2022-07-04T15:42:47;1.65;;;1.13;;
12410;SDS011;6269;51.044;13.692;2022-07-04T15:45:22;1.35;;;1.17;;
12410;SDS011;6269;51.044;13.692;2022-07-04T15:48:00;4.45;;;1.20;;
12410;SDS011;6269;51.044;13.692;2022-07-04T15:50:35;3.95;;;1.45;;
12410;SDS011;6269;51.044;13.692;2022-07-04T15:53:10;3.08;;;1.30;;
12410;SDS011;6269;51.044;13.692;2022-07-04T15:55:45;1.98;;;1.58;;
12410;SDS011;6269;51.044;13.692;2022-07-04T15:58:20;3.35;;;1.95;;